Tiempo atmosférico en la estación meteorológica de Muñotello, Ávila (1178 m.)



Fecha
DESCASC
Temp. máxima en grados centígrados (hora)
DESCASC
Temp. mínima en grados centígrados (hora)
DESCASC
Temp. media en grados centígrados
DESCASC
Racha de viento máxima en m/sg (hora)
DESCASC
Velocidad máxima media en intervalos de 10 minutos(hora)
DESCASC
Precipitaciones diarias en mm
DESCASC
Precipitaciones de 00:00 a 06:00 en mm
DESCASC
Precipitaciones de 06:00 a 12:00 en mm
DESCASC
Precipitaciones de 12:00 a 18:00 en mm
DESCASC
Precipitaciones de 18:00 a 24:00 en mm
DESCASC
19-09-2019 23.6 (14:50) 11.7 (08:20) 17.7 6.39 (16:00) 3.89 (16:00) 0 0 0 0 0
18-09-2019 23.1 (16:00) 10.8 (07:50) 17 6.39 (13:20) 4.72 (14:10) 0 0 0 0 0
17-09-2019 24.3 (14:30) 11.1 (00:00) 17.7 17.78 (19:30) 10.83 (22:00) 31.2 0 0 0 31.2
16-09-2019 19.3 (17:10) 11.9 (00:00) 15.6 5.28 (13:40) 3.33 (14:10) 2 0.2 0.2 1.6 0
15-09-2019 21.2 (15:50) 12.9 (00:00) 17.1 10.28 (16:10) 6.11 (16:10) 11 3.2 1.4 0 6.4
14-09-2019 18.1 (12:10) 13.4 (00:00) 15.8 11.11 (16:30) 7.5 (16:40) 0.8 0 0.4 0 0.4
13-09-2019 23.3 (13:10) 11.7 (00:00) 17.5 14.44 (14:40) 9.72 (14:50) 0 0 0 0 0
12-09-2019 24.1 (15:30) 9 (00:00) 16.6 10 (14:30) 6.39 (19:00) 0 0 0 0 0
11-09-2019 19.6 (17:20) 9.1 (00:00) 14.4 8.06 (09:50) 5 (01:50) 0 0 0 0 0
10-09-2019 15.9 (00:00) 8 (09:20) 11.9 13.89 (15:10) 8.61 (17:40) 0 0 0 0 0
09-09-2019 25.8 (16:20) 12.2 (08:00) 19 11.67 (16:10) 7.78 (13:10) 0 0 0 0 0
08-09-2019 24.9 (15:20) 9.8 (00:00) 17.3 8.61 (14:30) 5.28 (15:50) 0 0 0 0 0
07-09-2019 24.1 (16:50) 6.3 (00:00) 15.2 7.78 (18:00) 4.44 (19:20) 0 0 0 0 0
06-09-2019 22 (16:30) 5.2 (00:00) 13.6 7.22 (17:30) 3.89 (17:00) 0 0 0 0 0
05-09-2019 21.6 (16:20) 9.5 (00:00) 15.6 7.78 (14:50) 4.17 (14:50) 0 0 0 0 0
04-09-2019 28.8 (16:20) 15.3 (00:00) 22 7.5 (15:50) 4.17 (18:40) 0 0 0 0 0
03-09-2019 28 (16:10) 13.5 (00:00) 20.8 10 (15:40) 6.11 (15:00) 0 0 0 0 0
02-09-2019 24.6 (19:10) 12.6 (00:00) 18.6 8.61 (16:20) 5.83 (16:20) 2.6 0 0 2.6 0
01-09-2019 28.4 (16:30) 15.4 (00:00) 21.9 10.56 (14:20) 6.94 (12:50) 0 0 0 0 0
31-08-2019 27.9 (19:10) 14.5 (00:00) 21.2 6.39 (14:20) 3.89 (16:50) 0 0 0 0 0
30-08-2019 28.2 (13:10) 14.5 (00:00) 21.4 14.17 (14:30) 8.89 (14:30) 3.4 0 0 3.4 0
29-08-2019 29.5 (16:20) 15.1 (00:00) 22.3 10.28 (17:10) 4.72 (17:50) 6.8 0 0 6.6 0.2
28-08-2019 28.5 (15:30) 14.1 (00:00) 21.3 6.39 (18:30) 3.61 (18:50) 0 0 0 0 0
27-08-2019 23.9 (17:20) 10.4 (00:00) 17.1 8.06 (14:10) 5.28 (14:30) 0 0 0 0 0
26-08-2019 22.8 (15:20) 13.3 (00:00) 18 12.78 (01:50) 7.22 (01:50) 8.8 6.8 2 0 0
25-08-2019 29.4 (17:20) 16 (00:00) 22.7 14.72 (15:10) 8.61 (15:10) 3 0 0 0 3
24-08-2019 32.1 (14:50) 13.2 (00:00) 22.6 7.5 (20:50) 4.17 (20:50) 0 0 0 0 0
23-08-2019 31.4 (16:30) 13.8 (00:00) 22.6 7.5 (20:00) 4.17 (20:30) 0 0 0 0 0

Gráficas

Temp. máximas Temp. mínimas Temp. medias Precipitaciones Rachas de viento máximas Velocidades máximas media en intervalos de 10 minutos

Datos horarios

Fecha y hora oficial Temperatura (ºC) Velocidad del viento (km/h) Dirección del viento Racha (km/h) Dirección de racha Precipitación (mm) Presión (hPa) Tendencia (hPa) Humedad (%)
2019-09-21 23:00:00 16 11 Sur 23 Sudeste 0 -- -- 72
2019-09-21 22:00:00 15.5 6 Nordeste 28 Sudoeste 0 -- -- 70
2019-09-21 21:00:00 15.6 8 Norte 42 Sur 0 -- -- 74
2019-09-21 20:00:00 16.2 6 Oeste 23 Norte 0 -- -- 70
2019-09-21 19:00:00 15.7 15 Este 39 Sur 0.8 -- -- 76
2019-09-21 18:00:00 15.8 17 Este 31 Nordeste 0 -- -- 75
2019-09-21 17:00:00 18.2 12 Sudoeste 60 Sur 0 -- -- 61
2019-09-21 16:00:00 18.3 27 Sur 62 Sur 0 -- -- 62
2019-09-21 15:00:00 17.9 32 Sur 68 Sur 0 -- -- 66
2019-09-21 14:00:00 15.9 24 Sur 46 Sur 0 -- -- 73
2019-09-21 13:00:00 14.7 21 Sur 42 Sur 0 -- -- 77
2019-09-21 12:00:00 14.5 22 Sur 54 Sudeste 0.2 -- -- 78
2019-09-21 11:00:00 14.6 20 Sur 45 Sur 0 -- -- 77
2019-09-21 10:00:00 15.8 19 Sur 43 Sur 0 -- -- 69
2019-09-21 09:00:00 14.7 12 Este 28 Sudeste 0 -- -- 71
2019-09-21 08:00:00 12.3 11 Sur 24 Este 0 -- -- 78
2019-09-21 07:00:00 13.3 9 Sur 26 Sudeste 0 -- -- 73
2019-09-21 06:00:00 13.3 2 Sur 15 Sudeste 0 -- -- 72
2019-09-21 05:00:00 13.7 3 Sudoeste 23 Sudoeste 0 -- -- 70
2019-09-21 04:00:00 14.6 12 Oeste 27 Oeste 0 -- -- 66
2019-09-21 03:00:00 14.3 9 Norte 23 Este 0 -- -- 68
2019-09-21 02:00:00 15.2 5 Este 23 Sudeste 0 -- -- 69
2019-09-21 01:00:00 15.6 13 Sur 24 Sudeste 0 -- -- 72
2019-09-21 00:00:00 16 13 Sur 20 Sudeste 0 -- -- 68
2019-09-20 23:00:00 15.6 0 Calma 10 Oeste 0 -- -- 74
2019-09-20 22:00:00 15.5 3 Sudoeste 14 Oeste 0 -- -- 74
2019-09-20 21:00:00 17.8 8 Sudeste 19 Sudeste 0 -- -- 62
2019-09-20 20:00:00 19.5 4 Sur 18 Sur 0 -- -- 56
2019-09-20 19:00:00 19.9 12 Sudeste 32 Este 0 -- -- 55
2019-09-20 18:00:00 21.5 19 Sudeste 35 Sur 0 -- -- 51
2019-09-20 17:00:00 21.5 14 Sur 35 Este 0 -- -- 50
2019-09-20 16:00:00 22.8 16 Sudeste 36 Sudeste 0 -- -- 48
2019-09-20 15:00:00 21.5 20 Sudeste 41 Sur 0 -- -- 53
2019-09-20 14:00:00 21.5 11 Sudeste 25 Sudeste 0 -- -- 55
2019-09-20 13:00:00 21.1 16 Este 28 Sudeste 0 -- -- 55
2019-09-20 12:00:00 21.1 11 Este 34 Este 0 -- -- 55
2019-09-20 11:00:00 18.6 17 Este 31 Este 0 -- -- 60
2019-09-20 10:00:00 16.4 17 Nordeste 35 Este 0 -- -- 72
2019-09-20 09:00:00 14.2 6 Sur 15 Sudoeste 0 -- -- 82
2019-09-20 08:00:00 12.5 4 Nordeste 15 Norte 0 -- -- 86
2019-09-20 07:00:00 13.1 4 Nordeste 8 Este 0 -- -- 81
2019-09-20 06:00:00 14.3 4 Sur 8 Oeste 0 -- -- 76
2019-09-20 05:00:00 13.9 3 Sur 8 Oeste 0 -- -- 76
2019-09-20 04:00:00 13.8 5 Oeste 8 Oeste 0 -- -- 76
2019-09-20 03:00:00 13.5 3 Este 8 Este 0 -- -- 77
2019-09-20 02:00:00 15.4 3 Sur 13 Sudoeste 0 -- -- 67
2019-09-20 01:00:00 15.3 9 Oeste 13 Sudoeste 0 -- -- 68
2019-09-20 00:00:00 15.8 5 Sur 7 Sur 0 -- -- 65
2019-09-19 23:00:00 16.4 4 Sur 12 Sudoeste 0 -- -- 63
2019-09-19 22:00:00 17.2 8 Sudoeste 11 Sudoeste 0 -- -- 59
2019-09-19 21:00:00 18.1 8 Sur 15 Sur 0 -- -- 63
2019-09-19 20:00:00 20.2 7 Sur 10 Este 0 -- -- 57
2019-09-19 19:00:00 21.8 8 Nordeste 15 Nordeste 0 -- -- 52
2019-09-19 18:00:00 21.8 3 Sur 7 Sur 0 -- -- 51
2019-09-19 17:00:00 21.4 5 Oeste 22 Oeste 0 -- -- 56
2019-09-19 16:00:00 21 14 Oeste 23 Oeste 0 -- -- 59
2019-09-19 15:00:00 23.2 10 Este 15 Este 0 -- -- 43
2019-09-19 14:00:00 23.4 8 Este 11 Este 0 -- -- 45
2019-09-19 13:00:00 20.8 0 Calma 5 Este 0 -- -- 53
2019-09-19 12:00:00 19.4 0 Calma 5 Norte 0 -- -- 58
2019-09-19 11:00:00 18.6 0 Calma 4 Este 0 -- -- 63
2019-09-19 10:00:00 16 0 Calma 4 Sur 0 -- -- 74
2019-09-19 09:00:00 13.2 3 Sur 5 Sur 0 -- -- 80
2019-09-19 08:00:00 12.1 3 Sudoeste 9 Sur 0 -- -- 82
2019-09-19 07:00:00 12.9 8 Sur 10 Sur 0 -- -- 78
2019-09-19 06:00:00 12.9 2 Noroeste 8 Sur 0 -- -- 77
2019-09-19 05:00:00 13.1 3 Oeste 9 Sur 0 -- -- 76
2019-09-19 04:00:00 13.5 6 Sur 9 Sur 0 -- -- 74
2019-09-19 03:00:00 13.6 4 Sur 9 Sur 0 -- -- 77
2019-09-19 02:00:00 14.4 3 Sur 12 Sudoeste 0 -- -- 74
2019-09-19 01:00:00 14.4 3 Sur 6 Oeste 0 -- -- 73
2019-09-19 00:00:00 15.4 5 Sudoeste 10 Sur 0 -- -- 69
2019-09-18 23:00:00 16.1 8 Sur 12 Sur 0 -- -- 66
2019-09-18 22:00:00 16.8 11 Sur 15 Sudoeste 0 -- -- 64
2019-09-18 21:00:00 17.6 9 Sur 13 Sur 0 -- -- 63
2019-09-18 20:00:00 20.2 2 Sudeste 10 Nordeste 0 -- -- 54
2019-09-18 19:00:00 21.3 9 Nordeste 18 Norte 0 -- -- 52
2019-09-18 18:00:00 22.2 9 Norte 21 Noroeste 0 -- -- 45
2019-09-18 17:00:00 22.9 11 Norte 18 Oeste 0 -- -- 45
2019-09-18 16:00:00 23.1 7 Oeste 21 Noroeste 0 -- -- 48
2019-09-18 15:00:00 22.8 11 Oeste 23 Noroeste 0 -- -- 46
2019-09-18 14:00:00 22.1 12 Noroeste 23 Noroeste 0 -- -- 51
2019-09-18 13:00:00 22.3 13 Oeste 23 Oeste 0 -- -- 45
2019-09-18 12:00:00 21 6 Noroeste 13 Noroeste 0 -- -- 54
2019-09-18 11:00:00 19 3 Sudeste 8 Este 0 -- -- 58
2019-09-18 10:00:00 16 3 Sudeste 7 Sur 0 -- -- 68
2019-09-18 09:00:00 12.3 7 Sur 11 Sudoeste 0 -- -- 76
2019-09-18 08:00:00 10.9 5 Sudoeste 12 Sur 0 -- -- 79
2019-09-18 07:00:00 11 0 Calma 6 Sur 0 -- -- 81
2019-09-18 06:00:00 11.4 3 Oeste 13 Sur 0 -- -- 81
2019-09-18 05:00:00 12 4 Sudeste 12 Oeste 0 -- -- 79
2019-09-18 04:00:00 12 10 Oeste 13 Oeste 0 -- -- 81
2019-09-18 03:00:00 12 3 Sur 6 Sudoeste 0 -- -- 84
2019-09-18 02:00:00 13 5 Oeste 15 Sur 0 -- -- 77
2019-09-18 01:00:00 13 7 Sur 13 Oeste 0 -- -- 77
2019-09-18 00:00:00 13.7 4 Sudeste 17 Sur 0 -- -- 74
2019-09-17 23:00:00 16.1 14 Sudoeste 50 Sudoeste 0 -- -- 57
2019-09-17 22:00:00 14.4 39 Oeste 55 Sudoeste 0.8 -- -- 72
2019-09-17 21:00:00 12.4 22 Sur 45 Sur 5.8 -- -- 87
2019-09-15 18:00:00 -- -- -- -- -- -- -- -- --
2019-09-15 17:00:00 -- -- -- -- -- -- -- -- --
2019-09-15 16:00:00 -- -- -- -- -- -- -- -- --
2019-09-15 15:00:00 20.2 16 Este 25 Este 0 -- -- 58
2019-09-15 14:00:00 19 10 Nordeste 30 Este 0 -- -- 63
2019-09-15 13:00:00 19.6 19 Este 32 Este 0 -- -- 62
2019-09-15 12:00:00 17.5 16 Norte 26 Norte 0 -- -- 75
2019-09-15 11:00:00 16.5 14 Este 27 Este 0.2 -- -- 76
2019-09-15 10:00:00 14.5 4 Norte 10 Nordeste 0 -- -- 87
2019-09-15 09:00:00 13.4 3 Este 7 Nordeste 0 -- -- 92
2019-09-15 08:00:00 13 2 Este 6 Este 0 -- -- 92
2019-09-15 07:00:00 13.4 3 Norte 7 Nordeste 1.2 -- -- 93
2019-09-15 06:00:00 13.6 0 Calma 9 Sudeste 2.8 -- -- 93
2019-09-15 05:00:00 13.3 8 Sudoeste 10 Oeste 0.4 -- -- 92
2019-09-15 04:00:00 13.1 6 Oeste 9 Oeste 0 -- -- 92
2019-09-15 03:00:00 13.2 3 Nordeste 6 Nordeste 0 -- -- 91
2019-09-15 02:00:00 13.1 6 Noroeste 8 Norte 0 -- -- 91
2019-09-15 01:00:00 13.3 4 Sur 7 Sur 0 -- -- 92
2019-09-15 00:00:00 13.4 4 Este 9 Este 0.2 -- -- 91
2019-09-14 23:00:00 13.7 6 Este 19 Este 0.2 -- -- 88
2019-09-14 22:00:00 13.9 6 Este 14 Este 0 -- -- 79
2019-09-14 21:00:00 15 10 Sudeste 29 Este 0 -- -- 72
2019-09-14 20:00:00 15.8 15 Sudeste 27 Sudeste 0 -- -- 68
2019-09-14 19:00:00 16.9 12 Sudeste 32 Sudeste 0 -- -- 67
2019-09-14 18:00:00 16.2 19 Este 36 Este 0 -- -- 72
2019-09-14 17:00:00 16.7 25 Este 40 Este 0 -- -- 65
2019-09-14 16:00:00 17.5 17 Este 32 Este 0 -- -- 60
2019-09-14 15:00:00 17 14 Nordeste 24 Nordeste 0 -- -- 67
2019-09-14 14:00:00 16.5 14 Este 35 Sudeste 0 -- -- 70
2019-09-14 13:00:00 18 19 Este 37 Nordeste 0 -- -- 58
2019-09-14 12:00:00 17.7 21 Nordeste 33 Nordeste 0 -- -- 61
2019-09-14 11:00:00 17.7 13 Nordeste 24 Este 0.2 -- -- 64
2019-09-14 10:00:00 16.5 10 Este 18 Este 0 -- -- 70
2019-09-14 09:00:00 14.6 8 Sudeste 13 Sudeste 0 -- -- 78
2019-09-14 08:00:00 13.7 4 Este 11 Este 0.2 -- -- 85
2019-09-14 07:00:00 13.6 3 Sudeste 10 Sudeste 0 -- -- 84
2019-09-14 06:00:00 -- -- -- -- -- -- -- -- --
2019-09-14 05:00:00 -- -- -- -- -- -- -- -- --
2019-09-14 04:00:00 -- -- -- -- -- -- -- -- --
2019-09-14 03:00:00 14.2 6 Nordeste 19 Este 0 -- -- 87
2019-09-14 02:00:00 14.2 7 Sudeste 11 Sudeste 0 -- -- 88
2019-09-14 01:00:00 14.4 4 Sudeste 11 Nordeste 0 -- -- 85
2019-09-14 00:00:00 14.4 3 Este 28 Sudeste 0 -- -- 81
2019-09-13 23:00:00 14.7 18 Sudeste 27 Sudeste 0 -- -- 78
2019-09-13 22:00:00 14.2 8 Este 23 Este 0 -- -- 85
2019-09-13 21:00:00 15.2 16 Este 30 Este 0 -- -- 76
2019-09-13 20:00:00 15.7 18 Este 30 Este 0 -- -- 69
2019-09-13 19:00:00 16.3 15 Nordeste 30 Norte 0 -- -- 67
2019-09-13 18:00:00 16.5 16 Nordeste 36 Este 0 -- -- 67
2019-09-13 17:00:00 16.8 18 Nordeste 36 Este 0 -- -- 66
2019-09-13 16:00:00 17.9 19 Este 44 Este 0 -- -- 56
2019-09-13 15:00:00 18.9 32 Este 52 Este 0 -- -- 46
2019-09-13 14:00:00 22.6 30 Este 46 Nordeste 0 -- -- 39
2019-09-13 13:00:00 23.2 22 Nordeste 39 Nordeste 0 -- -- 33
2019-09-13 12:00:00 20.6 12 Este 25 Este 0 -- -- 38
2019-09-13 11:00:00 20.4 7 Este 18 Este 0 -- -- 43
2019-09-13 10:00:00 16.5 4 Sur 9 Sur 0 -- -- 63
2019-09-13 09:00:00 13.9 3 Sudeste 11 Sur 0 -- -- 72
2019-09-13 08:00:00 11.8 8 Oeste 10 Oeste 0 -- -- 79
2019-09-13 07:00:00 12.2 4 Sur 10 Sur 0 -- -- 77
2019-09-13 06:00:00 13.1 4 Sur 7 Sur 0 -- -- 74
2019-09-13 05:00:00 13.3 2 Sudeste 15 Este 0 -- -- 73
2019-09-13 04:00:00 14.5 10 Nordeste 33 Este 0 -- -- 69
2019-09-13 03:00:00 16.5 19 Este 32 Sudeste 0 -- -- 63
2019-09-13 02:00:00 14.4 2 Oeste 8 Sur 0 -- -- 68
2019-09-13 01:00:00 15 6 Sudeste 10 Sur 0 -- -- 66
2019-09-13 00:00:00 16 2 Oeste 8 Este 0 -- -- 62
2019-09-12 23:00:00 16.7 2 Sudeste 8 Sur 0 -- -- 60
2019-09-12 22:00:00 17.5 3 Sudeste 19 Sudeste 0 -- -- 58
2019-09-12 21:00:00 19.8 13 Sudeste 23 Este 0 -- -- 50
2019-09-12 20:00:00 21.7 12 Nordeste 32 Sudeste 0 -- -- 46
2019-09-12 19:00:00 22.2 23 Sudeste 34 Este 0 -- -- 44
2019-09-12 18:00:00 23.4 14 Este 30 Este 0 -- -- 40
2019-09-12 17:00:00 23.6 20 Nordeste 32 Este 0 -- -- 38
2019-09-12 16:00:00 23.3 17 Nordeste 28 Nordeste 0 -- -- 40
2019-09-12 15:00:00 23.6 18 Este 36 Este 0 -- -- 40
2019-09-12 14:00:00 22.4 18 Nordeste 31 Nordeste 0 -- -- 42
2019-09-12 13:00:00 21.8 10 Este 29 Este 0 -- -- 43
2019-09-12 12:00:00 20.5 14 Nordeste 21 Este 0 -- -- 45
2019-09-12 11:00:00 18.5 10 Nordeste 15 Este 0 -- -- 50
2019-09-12 10:00:00 15 2 Nordeste 4 Nordeste 0 -- -- 61
2019-09-12 09:00:00 11.5 0 Calma 5 Oeste 0 -- -- 75
2019-09-12 08:00:00 10.3 4 Sur 8 Sur 0 -- -- 77
2019-09-12 07:00:00 9.8 0 Calma 6 Oeste 0 -- -- 79
2019-09-12 06:00:00 10 3 Sur 8 Sur 0 -- -- 78
2019-09-12 05:00:00 9.1 4 Oeste 5 Sur 0 -- -- 80
2019-09-12 04:00:00 10.1 2 Oeste 8 Sur 0 -- -- 77
2019-09-12 03:00:00 10.2 2 Oeste 9 Sur 0 -- -- 76
2019-09-12 02:00:00 11.7 4 Sur 9 Sur 0 -- -- 71
2019-09-12 01:00:00 12.3 0 Calma 9 Sudeste 0 -- -- 68
2019-09-12 00:00:00 12.8 3 Noroeste 13 Sudeste 0 -- -- 67
2019-09-11 23:00:00 14.3 6 Sur 12 Este 0 -- -- 61
2019-09-11 22:00:00 15 5 Este 16 Nordeste 0 -- -- 59
2019-09-11 21:00:00 16.3 3 Sur 20 Norte 0 -- -- 54
2019-09-11 20:00:00 18.1 14 Norte 25 Nordeste 0 -- -- 49
2019-09-11 19:00:00 19 14 Norte 28 Nordeste 0 -- -- 46
2019-09-11 18:00:00 19.5 17 Norte 27 Nordeste 0 -- -- 45
2019-09-11 17:00:00 19.3 12 Nordeste 27 Nordeste 0 -- -- 46
2019-09-11 16:00:00 18.8 14 Nordeste 29 Norte 0 -- -- 46
2019-09-11 15:00:00 16.8 15 Norte 28 Nordeste 0 -- -- 51
2019-09-11 14:00:00 15.8 6 Nordeste 24 Nordeste 0 -- -- 56
2019-09-11 13:00:00 13.7 6 Norte 20 Sudeste 0 -- -- 63
2019-09-11 12:00:00 11.9 4 Este 19 Nordeste 0 -- -- 70
2019-09-11 11:00:00 10.6 12 Nordeste 24 Nordeste 0 -- -- 75
2019-09-11 10:00:00 10 10 Nordeste 29 Nordeste 0 -- -- 76
2019-09-11 09:00:00 9.8 9 Este 19 Nordeste 0 -- -- 76
2019-09-11 08:00:00 9.5 3 Este 17 Este 0 -- -- 78
2019-09-11 07:00:00 9.3 5 Nordeste 21 Nordeste 0 -- -- 78
2019-09-11 06:00:00 9.5 7 Nordeste 18 Norte 0 -- -- 77
2019-09-11 05:00:00 9.4 9 Norte 17 Norte 0 -- -- 79
2019-09-11 04:00:00 9.2 2 Nordeste 27 Nordeste 0 -- -- 75
2019-09-11 03:00:00 9.3 10 Norte 22 Este 0 -- -- 76
2019-09-11 02:00:00 9.9 14 Norte 27 Nordeste 0 -- -- 76
2019-09-11 01:00:00 10.1 8 Nordeste 21 Nordeste 0 -- -- 78
2019-09-11 00:00:00 10.7 2 Este 10 Noroeste 0 -- -- 75
2019-09-10 23:00:00 10.6 2 Sudeste 19 Nordeste 0 -- -- 75
2019-09-10 22:00:00 11.5 9 Este 38 Noroeste 0 -- -- 65
2019-09-10 21:00:00 13.7 26 Noroeste 42 Noroeste 0 -- -- 51
2019-09-10 20:00:00 14.5 27 Noroeste 43 Noroeste 0 -- -- 46
2019-09-10 19:00:00 14.7 25 Noroeste 39 Noroeste 0 -- -- 44
2019-09-10 18:00:00 15.2 23 Noroeste 41 Noroeste 0 -- -- 43
2019-09-10 17:00:00 15.1 27 Noroeste 42 Noroeste 0 -- -- 42
2019-09-10 16:00:00 14.7 23 Noroeste 50 Noroeste 0 -- -- 43
2019-09-10 15:00:00 13.6 19 Noroeste 44 Noroeste 0 -- -- 46
2019-09-10 14:00:00 14.1 19 Noroeste 39 Noroeste 0 -- -- 44
2019-09-10 13:00:00 13.6 15 Noroeste 34 Norte 0 -- -- 43
2019-09-10 12:00:00 12.7 16 Norte 31 Norte 0 -- -- 48
2019-09-10 11:00:00 10.4 16 Norte 24 Norte 0 -- -- 58
2019-09-10 10:00:00 9.9 4 Norte 26 Noroeste 0 -- -- 61
2019-09-10 09:00:00 8.3 8 Noroeste 22 Noroeste 0 -- -- 66
2019-09-10 08:00:00 8.6 12 Noroeste 30 Noroeste 0 -- -- 67
2019-09-10 07:00:00 9.5 17 Noroeste 31 Noroeste 0 -- -- 65
2019-09-10 06:00:00 10.8 15 Noroeste 28 Noroeste 0 -- -- 72
2019-09-10 05:00:00 11.5 16 Oeste 26 Oeste 0 -- -- 69
2019-09-10 04:00:00 12.1 14 Noroeste 24 Oeste 0 -- -- 67
2019-09-10 03:00:00 13.1 16 Oeste 36 Oeste 0 -- -- 62
2019-09-10 02:00:00 13.9 15 Oeste 42 Oeste 0 -- -- 58
2019-09-10 01:00:00 15.5 23 Oeste 41 Sudoeste 0 -- -- 52
2019-09-10 00:00:00 15.9 17 Oeste 36 Oeste 0 -- -- 48
2019-09-09 23:00:00 17.4 21 Oeste 33 Oeste 0 -- -- 36
2019-09-09 22:00:00 18.4 16 Sudoeste 25 Sudoeste 0 -- -- 35
2019-09-09 21:00:00 19.4 11 Oeste 27 Oeste 0 -- -- 31
2019-09-09 20:00:00 21.1 16 Oeste 35 Sudoeste 0 -- -- 29
2019-09-09 19:00:00 22 19 Oeste 37 Oeste 0 -- -- 30
2019-09-09 18:00:00 23 20 Oeste 35 Oeste 0 -- -- 28
2019-09-09 17:00:00 24.8 21 Oeste 42 Oeste 0 -- -- 22
2019-09-09 16:00:00 25.1 25 Oeste 39 Oeste 0 -- -- 20
2019-09-09 15:00:00 25.1 21 Oeste 39 Oeste 0 -- -- 21
2019-09-09 14:00:00 24.3 22 Oeste 38 Oeste 0 -- -- 25
2019-09-09 13:00:00 23.5 27 Oeste 37 Oeste 0 -- -- 29
2019-09-09 12:00:00 21.8 26 Oeste 35 Oeste 0 -- -- 34
2019-09-09 11:00:00 21.4 20 Oeste 27 Oeste 0 -- -- 35
2019-09-09 10:00:00 17.5 2 Este 5 Sur 0 -- -- 44
2019-09-09 09:00:00 14.7 2 Noroeste 5 Sudeste 0 -- -- 57
2019-09-09 08:00:00 12.2 0 Calma 5 Sur 0 -- -- 52
2019-09-09 07:00:00 12.4 3 Sudoeste 5 Oeste 0 -- -- 52
2019-09-09 06:00:00 12.7 0 Calma 6 Oeste 0 -- -- 51
2019-09-09 05:00:00 13.2 2 Sudeste 4 Sudeste 0 -- -- 50
2019-09-09 04:00:00 13.2 3 Sudeste 4 Nordeste 0 -- -- 50
2019-09-09 03:00:00 13.7 3 Sur 12 Sur 0 -- -- 49
2019-09-09 02:00:00 14.9 3 Sudeste 15 Sur 0 -- -- 45
2019-09-09 01:00:00 15.7 8 Sur 13 Sur 0 -- -- 44
2019-09-09 00:00:00 16.7 8 Sur 14 Sur 0 -- -- 42
2019-09-08 23:00:00 17.2 10 Sur 14 Sur 0 -- -- 42
2019-09-08 22:00:00 18.2 10 Sur 18 Sudoeste 0 -- -- 41
2019-09-08 21:00:00 19.8 10 Sudoeste 17 Noroeste 0 -- -- 38
2019-09-08 20:00:00 22.1 11 Noroeste 18 Noroeste 0 -- -- 36
2019-09-08 19:00:00 23.7 7 Noroeste 23 Sudoeste 0 -- -- 33
2019-09-08 18:00:00 24.1 13 Noroeste 27 Noroeste 0 -- -- 33
2019-09-08 17:00:00 24.3 11 Oeste 28 Oeste 0 -- -- 33
2019-09-08 16:00:00 24.6 13 Noroeste 28 Oeste 0 -- -- 33
2019-09-08 15:00:00 24.5 12 Oeste 31 Oeste 0 -- -- 33
2019-09-08 14:00:00 24.1 15 Noroeste 28 Noroeste 0 -- -- 34
2019-09-08 13:00:00 23.3 6 Norte 13 Nordeste 0 -- -- 37
2019-09-08 12:00:00 21.8 4 Este 9 Nordeste 0 -- -- 40
2019-09-08 11:00:00 18.5 3 Norte 7 Oeste 0 -- -- 44
2019-09-08 10:00:00 15.3 3 Noroeste 5 Noroeste 0 -- -- 56
2019-09-08 09:00:00 12 0 Calma 5 Noroeste 0 -- -- 54
2019-09-08 08:00:00 10.1 5 Sur 10 Sur 0 -- -- 58
2019-09-08 07:00:00 10.5 3 Sudeste 9 Sur 0 -- -- 55
2019-09-08 06:00:00 10.9 4 Oeste 9 Sur 0 -- -- 51
2019-09-08 05:00:00 10.7 2 Sur 5 Sudoeste 0 -- -- 51
2019-09-08 04:00:00 10.9 0 Calma 9 Oeste 0 -- -- 50
2019-09-08 03:00:00 11.4 5 Oeste 13 Sur 0 -- -- 48
2019-09-08 02:00:00 13.2 3 Sur 8 Sur 0 -- -- 42
2019-09-08 01:00:00 13.8 5 Sur 13 Sur 0 -- -- 40
2019-09-08 00:00:00 14.9 4 Sudeste 14 Sur 0 -- -- 37
2019-09-07 23:00:00 15.9 12 Sur 15 Sur 0 -- -- 36
2019-09-07 22:00:00 17.1 11 Sur 13 Sur 0 -- -- 35
2019-09-07 21:00:00 18.7 9 Sur 16 Norte 0 -- -- 34
2019-09-07 20:00:00 21.3 11 Norte 23 Norte 0 -- -- 31
2019-09-07 19:00:00 23.1 10 Norte 23 Nordeste 0 -- -- 30
2019-09-07 18:00:00 23.9 15 Norte 28 Nordeste 0 -- -- 30
2019-09-07 17:00:00 24 10 Nordeste 19 Norte 0 -- -- 34
2019-09-07 16:00:00 24 12 Nordeste 22 Nordeste 0 -- -- 35
2019-09-07 15:00:00 23.6 9 Norte 16 Norte 0 -- -- 32
2019-09-07 14:00:00 22.2 7 Nordeste 16 Nordeste 0 -- -- 37
2019-09-07 13:00:00 20.4 6 Nordeste 12 Nordeste 0 -- -- 45
2019-09-07 12:00:00 17.7 4 Norte 11 Norte 0 -- -- 49
2019-09-07 11:00:00 14.3 3 Norte 8 Noroeste 0 -- -- 54
2019-09-07 10:00:00 11.2 2 Noroeste 4 Norte 0 -- -- 63
2019-09-07 09:00:00 8 4 Sudeste 6 Sur 0 -- -- 70
2019-09-07 08:00:00 6.5 0 Calma 9 Sur 0 -- -- 74
2019-09-07 07:00:00 7.8 5 Sur 9 Sur 0 -- -- 70
2019-09-07 06:00:00 6.9 3 Oeste 7 Sur 0 -- -- 71
2019-09-07 05:00:00 8.3 4 Sur 8 Sur 0 -- -- 66
2019-09-07 04:00:00 8.4 5 Oeste 8 Oeste 0 -- -- 65
2019-09-07 03:00:00 9.2 2 Sur 4 Sur 0 -- -- 62
2019-09-07 02:00:00 10.1 3 Noroeste 5 Sudeste 0 -- -- 59
2019-09-07 01:00:00 11.3 3 Este 13 Sudeste 0 -- -- 55
2019-09-07 00:00:00 13.7 10 Sudeste 19 Sudeste 0 -- -- 48
2019-09-06 23:00:00 14.8 13 Sudeste 19 Sudeste 0 -- -- 45
2019-09-06 22:00:00 16 5 Sudeste 12 Sur 0 -- -- 36
2019-09-06 21:00:00 17.5 3 Sur 12 Nordeste 0 -- -- 34
2019-09-06 20:00:00 19.6 10 Nordeste 20 Nordeste 0 -- -- 28
2019-09-06 19:00:00 20.9 12 Nordeste 23 Nordeste 0 -- -- 28
2019-09-06 18:00:00 21.7 11 Nordeste 26 Nordeste 0 -- -- 27
2019-09-06 17:00:00 21.5 14 Nordeste 26 Este 0 -- -- 28
2019-09-06 16:00:00 21.2 8 Nordeste 20 Nordeste 0 -- -- 31
2019-09-06 15:00:00 20.5 10 Nordeste 19 Nordeste 0 -- -- 34
2019-09-06 14:00:00 19.5 7 Nordeste 18 Nordeste 0 -- -- 39
2019-09-06 13:00:00 17.5 10 Nordeste 18 Nordeste 0 -- -- 42
2019-09-06 12:00:00 16.1 8 Este 13 Este 0 -- -- 45
2019-09-06 11:00:00 12.5 3 Nordeste 6 Noroeste 0 -- -- 62
2019-09-06 10:00:00 9.6 2 Noroeste 4 Noroeste 0 -- -- 74
2019-09-06 09:00:00 7 0 Calma 7 Sur 0 -- -- 81
2019-09-06 08:00:00 5.4 5 Sur 8 Sur 0 -- -- 85
2019-09-06 07:00:00 5.7 5 Sur 6 Sur 0 -- -- 83
2019-09-06 06:00:00 6.5 4 Sur 7 Sur 0 -- -- 80
2019-09-06 05:00:00 7.2 2 Sur 7 Sur 0 -- -- 79
2019-09-06 04:00:00 7.7 0 Calma 2 Noroeste 0 -- -- 78
2019-09-06 03:00:00 8.9 0 Calma 6 Sudeste 0 -- -- 73
2019-09-06 02:00:00 9.8 4 Este 13 Este 0 -- -- 70
2019-09-06 01:00:00 11.3 6 Este 14 Sudeste 0 -- -- 66
2019-09-06 00:00:00 12.4 7 Sudeste 15 Sudeste 0 -- -- 61
2019-09-05 23:00:00 13.3 9 Sudeste 21 Nordeste 0 -- -- 58
2019-09-05 22:00:00 14.7 12 Este 22 Este 0 -- -- 53
2019-09-05 21:00:00 16.5 9 Este 21 Nordeste 0 -- -- 41
2019-09-05 20:00:00 18.8 12 Nordeste 23 Nordeste 0 -- -- 39
2019-09-05 19:00:00 20.6 11 Nordeste 22 Nordeste 0 -- -- 30
2019-09-05 18:00:00 21 11 Nordeste 22 Nordeste 0 -- -- 29
2019-09-05 17:00:00 21.3 14 Norte 25 Nordeste 0 -- -- 32
2019-09-05 16:00:00 21 14 Nordeste 24 Nordeste 0 -- -- 41
2019-09-05 15:00:00 20.7 12 Norte 28 Nordeste 0 -- -- 43
2019-09-05 14:00:00 19.7 10 Este 22 Este 0 -- -- 50
2019-09-05 13:00:00 18.2 13 Este 25 Este 0 -- -- 53
2019-09-05 12:00:00 16.8 13 Este 21 Este 0 -- -- 56
2019-09-05 11:00:00 15.4 8 Este 17 Nordeste 0 -- -- 63
2019-09-05 10:00:00 13.5 7 Nordeste 11 Este 0 -- -- 73
2019-09-05 09:00:00 11.8 2 Sudeste 5 Norte 0 -- -- 81
2019-09-05 08:00:00 9.8 0 Calma 6 Noroeste 0 -- -- 87
2019-09-05 07:00:00 9.8 3 Noroeste 8 Este 0 -- -- 85
2019-09-05 06:00:00 10.6 5 Sur 10 Sudeste 0 -- -- 83
2019-09-05 05:00:00 12.1 9 Sudeste 16 Sudeste 0 -- -- 77
2019-09-05 04:00:00 12.8 6 Este 13 Nordeste 0 -- -- 71
2019-09-05 03:00:00 14.8 5 Este 10 Este 0 -- -- 59
2019-09-05 02:00:00 16.7 3 Oeste 9 Oeste 0 -- -- 53
2019-09-05 01:00:00 17.4 5 Oeste 13 Sur 0 -- -- 50
2019-09-05 00:00:00 18.3 7 Sur 12 Sur 0 -- -- 47
2019-09-04 23:00:00 19 5 Este 17 Sudoeste 0 -- -- 40
2019-09-04 22:00:00 21.5 12 Sur 14 Sur 0 -- -- 32
2019-09-04 21:00:00 23.2 5 Oeste 15 Noroeste 0 -- -- 30
2019-09-04 20:00:00 25.7 11 Norte 22 Norte 0 -- -- 26
2019-09-04 19:00:00 27.1 14 Noroeste 22 Noroeste 0 -- -- 23
2019-09-04 18:00:00 28.1 10 Noroeste 22 Noroeste 0 -- -- 24
2019-09-04 17:00:00 28.3 6 Norte 27 Noroeste 0 -- -- 24
2019-09-04 16:00:00 28.3 8 Noroeste 27 Oeste 0 -- -- 24
2019-09-04 15:00:00 28.1 9 Noroeste 20 Noroeste 0 -- -- 24
2019-09-04 14:00:00 27.3 11 Noroeste 20 Noroeste 0 -- -- 25
2019-09-04 13:00:00 27.2 5 Noroeste 23 Oeste 0 -- -- 25
2019-09-04 12:00:00 25.7 7 Noroeste 14 Noroeste 0 -- -- 29
2019-09-04 11:00:00 24.4 3 Norte 5 Norte 0 -- -- 35
2019-09-04 10:00:00 21.6 2 Este 5 Sudeste 0 -- -- 42
2019-09-04 09:00:00 17.6 0 Calma 5 Sudoeste 0 -- -- 53
2019-09-04 08:00:00 15.4 2 Sudeste 5 Sur 0 -- -- 50
2019-09-04 07:00:00 15.4 0 Calma 4 Noroeste 0 -- -- 49
2019-09-04 06:00:00 15.7 0 Calma 5 Sur 0 -- -- 49
2019-09-04 05:00:00 15.9 3 Oeste 8 Sur 0 -- -- 50
2019-09-04 04:00:00 16.3 4 Sur 11 Sudoeste 0 -- -- 48
2019-09-04 03:00:00 16.9 4 Sur 13 Sudoeste 0 -- -- 48
2019-09-04 02:00:00 17.6 6 Sur 11 Sudoeste 0 -- -- 46
2019-09-04 01:00:00 17.2 2 Sur 11 Sur 0 -- -- 47
2019-09-04 00:00:00 19.1 8 Sur 13 Sur 0 -- -- 43
2019-09-03 23:00:00 20.1 12 Sur 15 Sur 0 -- -- 41
2019-09-03 22:00:00 20.5 11 Sur 15 Oeste 0 -- -- 40
2019-09-03 21:00:00 23 6 Oeste 17 Oeste 0 -- -- 35
2019-09-03 20:00:00 25.2 6 Noroeste 21 Noroeste 0 -- -- 34
2019-09-03 19:00:00 26.5 17 Noroeste 29 Noroeste 0 -- -- 29
2019-09-03 18:00:00 27.4 17 Noroeste 31 Noroeste 0 -- -- 28
2019-09-03 17:00:00 27.6 17 Noroeste 31 Oeste 0 -- -- 29
2019-09-03 16:00:00 27.7 17 Noroeste 36 Noroeste 0 -- -- 30
2019-09-03 15:00:00 27.5 22 Noroeste 31 Noroeste 0 -- -- 34
2019-09-03 14:00:00 27.4 15 Noroeste 25 Noroeste 0 -- -- 36
2019-09-03 13:00:00 26.8 4 Nordeste 13 Nordeste 0 -- -- 40
2019-09-03 12:00:00 25 5 Este 10 Este 0 -- -- 45
2019-09-03 11:00:00 22.3 3 Nordeste 5 Este 0 -- -- 48
2019-09-03 10:00:00 19.3 3 Nordeste 5 Nordeste 0 -- -- 63
2019-09-03 09:00:00 16.9 0 Calma 8 Sur 0 -- -- 69
2019-09-03 08:00:00 14.7 4 Sudoeste 12 Sur 0 -- -- 62
2019-09-03 07:00:00 13.7 4 Oeste 10 Oeste 0 -- -- 68
2019-09-03 06:00:00 13.7 0 Calma 9 Sur 0 -- -- 69
2019-09-03 05:00:00 14.5 5 Sur 8 Sur 0 -- -- 64
2019-09-03 04:00:00 13.8 3 Sur 6 Sur 0 -- -- 69
2019-09-03 03:00:00 15.1 0 Calma 9 Sur 0 -- -- 65
2019-09-03 02:00:00 15.8 6 Sur 11 Sur 0 -- -- 61
2019-09-03 01:00:00 16.7 7 Sur 10 Sur 0 -- -- 58
2019-09-03 00:00:00 17.5 6 Sur 14 Sur 0 -- -- 56
2019-09-02 23:00:00 18.6 11 Sur 14 Sudeste 0 -- -- 56
2019-09-02 22:00:00 20.7 4 Sudeste 17 Nordeste 0 -- -- 54
2019-09-02 21:00:00 22 4 Sudeste 12 Este 0 -- -- 58
2019-09-02 20:00:00 23.4 5 Noroeste 9 Sur 0 -- -- 62
2019-09-02 19:00:00 24.4 3 Sur 12 Sudeste 0 -- -- 51
2019-09-02 18:00:00 22.4 4 Noroeste 13 Oeste 0 -- -- 66
2019-09-02 17:00:00 21.6 9 Este 31 Sudeste 0 -- -- 58
2019-09-02 16:00:00 20.9 11 Sur 22 Sur 1.4 -- -- 68
2019-09-02 15:00:00 22.1 15 Sur 24 Sur 1.2 -- -- 64
2019-09-02 14:00:00 23.9 6 Oeste 12 Sudoeste 0 -- -- 52
2019-09-02 13:00:00 23.5 3 Oeste 8 Sudoeste 0 -- -- 52
2019-09-02 12:00:00 20.1 4 Norte 10 Norte 0 -- -- 62
2019-09-02 11:00:00 19.2 3 Nordeste 9 Este 0 -- -- 65
2019-09-02 10:00:00 17.1 4 Este 6 Este 0 -- -- 73
2019-09-02 09:00:00 15 2 Sudoeste 6 Sudoeste 0 -- -- 79
2019-09-02 08:00:00 12.7 5 Oeste 8 Oeste 0 -- -- 86
2019-09-02 07:00:00 13 0 Calma 5 Oeste 0 -- -- 84
2019-09-02 06:00:00 13.7 0 Calma 3 Sudoeste 0 -- -- 82
2019-09-02 05:00:00 14.3 3 Sudeste 7 Sur 0 -- -- 79
2019-09-02 04:00:00 14.9 0 Calma 6 Oeste 0 -- -- 76
2019-09-02 03:00:00 15.7 2 Sur 9 Sur 0 -- -- 72
2019-09-02 02:00:00 16.4 4 Sur 6 Sur 0 -- -- 71
2019-09-02 01:00:00 17.1 0 Calma 10 Este 0 -- -- 70
2019-09-02 00:00:00 17.6 6 Sudeste 16 Sur 0 -- -- 67
2019-09-01 23:00:00 19.3 9 Sur 12 Sur 0 -- -- 60
2019-09-01 22:00:00 20.2 9 Sur 13 Sudoeste 0 -- -- 57
2019-09-01 21:00:00 22 8 Sudoeste 12 Sur 0 -- -- 52
2019-09-01 20:00:00 23.6 7 Noroeste 24 Norte 0 -- -- 49
2019-09-01 19:00:00 25.3 10 Noroeste 21 Norte 0 -- -- 46
2019-09-01 18:00:00 25 13 Noroeste 28 Noroeste 0 -- -- 46
2019-09-01 17:00:00 26.1 15 Noroeste 36 Oeste 0 -- -- 44
2019-09-01 16:00:00 26.8 15 Noroeste 33 Noroeste 0 -- -- 41
2019-09-01 15:00:00 27.2 18 Oeste 38 Oeste 0 -- -- 39
2019-09-01 14:00:00 27.3 20 Oeste 35 Oeste 0 -- -- 38
2019-09-01 13:00:00 27.2 20 Oeste 37 Oeste 0 -- -- 37
2019-09-01 12:00:00 26.8 21 Oeste 35 Oeste 0 -- -- 38
2019-09-01 11:00:00 24.1 4 Nordeste 8 Norte 0 -- -- 42
2019-09-01 10:00:00 21.9 3 Sudeste 4 Este 0 -- -- 51
2019-09-01 09:00:00 18.2 2 Sudeste 10 Sur 0 -- -- 62
2019-09-01 08:00:00 15.6 3 Sudoeste 9 Sur 0 -- -- 64
2019-09-01 07:00:00 16 4 Sur 8 Sudoeste 0 -- -- 63
2019-09-01 06:00:00 16.1 3 Sudeste 11 Sudoeste 0 -- -- 63
2019-09-01 05:00:00 17.1 6 Sur 14 Sur 0 -- -- 58
2019-09-01 04:00:00 18.2 9 Sur 14 Sur 0 -- -- 54
2019-09-01 03:00:00 18.6 5 Sudeste 17 Sudoeste 0 -- -- 55
2019-09-01 02:00:00 20.8 12 Sudoeste 20 Sudoeste 0 -- -- 49
2019-09-01 01:00:00 19.5 3 Sudoeste 8 Oeste 0 -- -- 53
2019-09-01 00:00:00 20 2 Norte 5 Nordeste 0 -- -- 54
2019-08-31 23:00:00 20.9 4 Nordeste 14 Sudoeste 0 -- -- 51
2019-08-31 22:00:00 24.4 13 Sudoeste 23 Sudoeste 0 -- -- 40
2019-08-31 21:00:00 24.6 12 Sudoeste 20 Sudoeste 0 -- -- 39
2019-08-31 20:00:00 26.7 10 Sudoeste 18 Sudoeste 0 -- -- 36
2019-08-31 19:00:00 27.8 7 Oeste 20 Sur 0 -- -- 36
2019-08-31 18:00:00 27.4 7 Sudeste 21 Sudeste 0 -- -- 36
2019-08-31 17:00:00 26.7 10 Sudeste 22 Este 0 -- -- 38
2019-08-31 16:00:00 26.4 10 Norte 19 Norte 0 -- -- 39
2019-08-31 15:00:00 26.8 7 Sudeste 23 Sudeste 0 -- -- 37
2019-08-31 14:00:00 27 8 Este 13 Este 0 -- -- 38
2019-08-31 13:00:00 25.2 5 Este 10 Norte 0 -- -- 42
2019-08-31 12:00:00 25.2 5 Norte 8 Norte 0 -- -- 43
2019-08-31 11:00:00 23 2 Este 5 Nordeste 0 -- -- 52
2019-08-31 10:00:00 20.1 3 Nordeste 4 Nordeste 0 -- -- 57
2019-08-31 09:00:00 16.8 0 Calma 8 Sur 0 -- -- 66
2019-08-31 08:00:00 15.1 2 Sur 8 Sur 0 -- -- 65
2019-08-31 07:00:00 15.7 6 Sur 9 Sur 0 -- -- 61
2019-08-31 06:00:00 16.7 0 Calma 9 Sur 0 -- -- 59
2019-08-31 05:00:00 16.8 3 Sur 10 Sur 0 -- -- 59
2019-08-31 04:00:00 16.1 3 Oeste 11 Sudoeste 0 -- -- 64
2019-08-31 03:00:00 16.6 3 Noroeste 12 Sur 0 -- -- 62
2019-08-31 02:00:00 16.6 6 Oeste 13 Sur 0 -- -- 64
2019-08-31 01:00:00 17.4 6 Sudoeste 14 Sur 0 -- -- 59
2019-08-31 00:00:00 17.1 8 Sur 18 Oeste 0 -- -- 63
2019-08-30 23:00:00 17.9 4 Sudeste 18 Oeste 0 -- -- 61
2019-08-30 22:00:00 19.5 9 Sudoeste 16 Oeste 0 -- -- 56
2019-08-30 21:00:00 20.2 9 Sudoeste 12 Oeste 0 -- -- 57
2019-08-30 20:00:00 21.9 7 Oeste 10 Oeste 0 -- -- 56
2019-08-30 19:00:00 21.1 4 Noroeste 19 Norte 0 -- -- 59
2019-08-30 18:00:00 20.4 7 Oeste 24 Oeste 0 -- -- 58
2019-08-30 17:00:00 19 14 Sudeste 24 Sudoeste 0 -- -- 62
2019-08-30 16:00:00 19 12 Sudoeste 24 Sudoeste 0.6 -- -- 59
2019-08-30 15:00:00 17.7 22 Oeste -- -- 2.8 -- -- 74
2019-08-30 14:00:00 26.4 12 Nordeste 26 Este 0 -- -- 43
2019-08-30 13:00:00 28.1 13 Nordeste 17 Norte 0 -- -- 41
2019-08-30 12:00:00 25.1 5 Nordeste 9 Norte 0 -- -- 46
2019-08-30 11:00:00 23.1 4 Nordeste 6 Nordeste 0 -- -- 50
2019-08-30 10:00:00 21.6 2 Sudeste 4 Este 0 -- -- 52
2019-08-30 09:00:00 18.7 2 Sur 7 Sur 0 -- -- 63
2019-08-30 08:00:00 15.3 7 Oeste 10 Oeste 0 -- -- 68
2019-08-30 07:00:00 16.1 9 Sur 13 Sur 0 -- -- 65
2019-08-30 06:00:00 16.1 6 Sur 13 Oeste 0 -- -- 65
2019-08-30 05:00:00 15 3 Sur 6 Sur 0 -- -- 74
2019-08-30 04:00:00 17.9 5 Sur 13 Sur 0 -- -- 61
2019-08-30 03:00:00 17.2 4 Oeste 10 Sur 0 -- -- 64
2019-08-30 02:00:00 17.8 6 Sur 10 Sur 0 -- -- 62
2019-08-30 01:00:00 19.2 5 Sur 14 Sur 0 -- -- 62
2019-08-30 00:00:00 19.1 2 Sur 11 Sur 0 -- -- 57
2019-08-29 23:00:00 19.3 4 Oeste 10 Sur 0.2 -- -- 61
2019-08-29 22:00:00 20 5 Este 14 Oeste 0 -- -- 68
2019-08-29 21:00:00 21.8 7 Oeste 14 Sudoeste 0 -- -- 54
2019-08-29 20:00:00 22.5 10 Oeste 16 Noroeste 0 -- -- 61
2019-08-29 19:00:00 21.5 11 Nordeste 24 Sudeste 0 -- -- 68
2019-08-29 18:00:00 20.4 15 Este 37 Norte 6.6 -- -- 61
2019-08-29 17:00:00 27.4 14 Este 23 Este 0 -- -- 40
2019-08-29 16:00:00 28.4 3 Sudeste 14 Sur 0 -- -- 34
2019-08-29 15:00:00 28.4 9 Oeste 19 Sur 0 -- -- 34
2019-08-29 14:00:00 28.6 8 Sudeste 17 Norte 0 -- -- 33
2019-08-29 13:00:00 27.9 6 Noroeste 21 Nordeste 0 -- -- 36
2019-08-29 12:00:00 26.3 6 Norte 11 Norte 0 -- -- 39
2019-08-29 11:00:00 22.9 3 Noroeste 5 Norte 0 -- -- 48
2019-08-29 10:00:00 19.8 2 Norte 6 Este 0 -- -- 61
2019-08-29 09:00:00 17.4 2 Noroeste 6 Oeste 0 -- -- 65
2019-08-29 08:00:00 16.2 3 Sur 8 Sur 0 -- -- 67
2019-08-29 07:00:00 15.5 2 Sudoeste 9 Oeste 0 -- -- 69
2019-08-29 06:00:00 15.8 4 Sur 10 Sur 0 -- -- 68
2019-08-29 05:00:00 16.7 3 Sudoeste 12 Sur 0 -- -- 65
2019-08-29 04:00:00 16.6 2 Este 6 Noroeste 0 -- -- 66
2019-08-29 03:00:00 17.7 0 Calma 6 Sur 0 -- -- 63
2019-08-29 02:00:00 17.9 3 Sur 8 Sur 0 -- -- 61
2019-08-29 01:00:00 19 5 Sur 10 Sur 0 -- -- 57
2019-08-29 00:00:00 19.8 7 Sur 10 Sur 0 -- -- 55
2019-08-28 23:00:00 20.7 3 Sudoeste 13 Sudoeste 0 -- -- 53
2019-08-28 22:00:00 21.4 8 Sudoeste 12 Sur 0 -- -- 50
2019-08-28 21:00:00 23.4 7 Sudoeste 13 Oeste 0 -- -- 46
2019-08-28 20:00:00 25.2 6 Noroeste 19 Noroeste 0 -- -- 42
2019-08-28 19:00:00 26.5 13 Noroeste 23 Noroeste 0 -- -- 38
2019-08-28 18:00:00 26.5 6 Norte 19 Noroeste 0 -- -- 37
2019-08-28 17:00:00 27.2 6 Norte 18 Norte 0 -- -- 35
2019-08-28 16:00:00 27.4 5 Norte 18 Noroeste 0 -- -- 34
2019-08-28 15:00:00 27.6 6 Norte 18 Este 0 -- -- 34
2019-08-28 14:00:00 26.5 6 Norte 19 Este 0 -- -- 36
2019-08-28 13:00:00 25.4 8 Nordeste 15 Nordeste 0 -- -- 39
2019-08-28 12:00:00 23.7 8 Norte 16 Norte 0 -- -- 43
2019-08-28 11:00:00 21.6 3 Norte 7 Norte 0 -- -- 54
2019-08-28 10:00:00 19.4 2 Nordeste 4 Nordeste 0 -- -- 63
2019-08-28 09:00:00 16.3 0 Calma 3 Oeste 0 -- -- 69
2019-08-28 08:00:00 14.3 0 Calma 5 Sur 0 -- -- 72
2019-08-28 07:00:00 14.4 3 Sur 9 Sur 0 -- -- 71
2019-08-28 06:00:00 14.5 2 Oeste 4 Oeste 0 -- -- 69
2019-08-28 05:00:00 14.9 5 Sur 8 Sur 0 -- -- 69
2019-08-28 04:00:00 14.6 0 Calma 4 Sudeste 0 -- -- 69
2019-08-28 03:00:00 14.9 0 Calma 11 Sudoeste 0 -- -- 67
2019-08-28 02:00:00 15.2 0 Calma 13 Sur 0 -- -- 67
2019-08-28 01:00:00 16.2 7 Sudoeste 12 Sudoeste 0 -- -- 63
2019-08-28 00:00:00 16.3 2 Sur 9 Sudoeste 0 -- -- 65
2019-08-27 23:00:00 16.4 3 Sudeste 14 Sur 0 -- -- 69
2019-08-27 22:00:00 18.3 11 Sur 15 Sudoeste 0 -- -- 60
2019-08-27 21:00:00 20 6 Oeste 18 Noroeste 0 -- -- 56
2019-08-27 20:00:00 21.9 13 Noroeste 23 Noroeste 0 -- -- 49
2019-08-27 19:00:00 22.9 15 Noroeste 25 Norte 0 -- -- 45
2019-08-27 18:00:00 23 17 Noroeste 27 Noroeste 0 -- -- 45
2019-08-27 17:00:00 23.3 12 Noroeste 23 Noroeste 0 -- -- 46
2019-08-27 16:00:00 23.4 13 Noroeste 24 Noroeste 0 -- -- 47
2019-08-27 15:00:00 22.9 17 Noroeste 29 Oeste 0 -- -- 48
2019-08-27 14:00:00 21.7 14 Noroeste 26 Oeste 0 -- -- 50
2019-08-27 13:00:00 21.2 17 Oeste 28 Oeste 0 -- -- 52
2019-08-27 12:00:00 20.5 15 Oeste 28 Oeste 0 -- -- 56
2019-08-27 11:00:00 19.3 15 Oeste 22 Oeste 0 -- -- 59
2019-08-27 10:00:00 16.1 0 Calma 8 Oeste 0 -- -- 71
2019-08-27 09:00:00 12.4 7 Oeste 9 Oeste 0 -- -- 82
2019-08-27 08:00:00 10.4 2 Sudoeste 8 Este 0 -- -- 87
2019-08-27 07:00:00 11 3 Sudeste 10 Sur 0 -- -- 84
2019-08-27 06:00:00 12.4 8 Sur 12 Sur 0 -- -- 77
2019-08-27 05:00:00 12.5 8 Sur 10 Sur 0 -- -- 79
2019-08-27 04:00:00 12.4 3 Oeste 7 Sudoeste 0 -- -- 81
2019-08-27 03:00:00 12.8 2 Sudoeste 9 Sudeste 0 -- -- 80
2019-08-27 02:00:00 12.7 3 Sudeste 10 Sur 0 -- -- 77
2019-08-27 01:00:00 13.9 6 Sur 13 Sudoeste 0 -- -- 74
2019-08-27 00:00:00 14.3 9 Oeste 16 Noroeste 0 -- -- 74
2019-08-26 23:00:00 14.8 8 Noroeste 22 Este 0 -- -- 74
2019-08-26 22:00:00 16 8 Nordeste 15 Nordeste 0 -- -- 65
2019-08-26 21:00:00 17.4 9 Este 29 Este 0 -- -- 50
2019-08-26 20:00:00 17.8 2 Oeste 37 Sudoeste 0 -- -- 53
2019-08-26 19:00:00 19 22 Sudoeste 40 Sudoeste 0 -- -- 45
2019-08-26 18:00:00 15.6 12 Oeste 36 Oeste 0 -- -- 73
2019-08-26 17:00:00 17.6 20 Oeste 34 Oeste 0 -- -- 68
2019-08-26 16:00:00 21.4 10 Sur 23 Sudoeste 0 -- -- 56
2019-08-26 15:00:00 22.5 8 Sudeste 27 Este 0 -- -- 53
2019-08-26 14:00:00 21.2 14 Este 25 Sudeste 0 -- -- 63
2019-08-26 13:00:00 19.2 4 Sur 16 Este 0 -- -- 69
2019-08-26 12:00:00 18.3 9 Nordeste 20 Sudeste 0 -- -- 76
2019-08-26 11:00:00 16.4 11 Este 17 Nordeste 0 -- -- 85
2019-08-26 10:00:00 15.2 6 Este 16 Este 0 -- -- 88
2019-08-26 09:00:00 14.5 3 Noroeste 15 Sudeste 0 -- -- 91
2019-08-26 08:00:00 13.7 4 Sudeste 10 Sudeste 0.2 -- -- 92
2019-08-26 07:00:00 13.7 8 Sur 16 Sudeste 1.8 -- -- 91
2019-08-26 06:00:00 14 6 Norte 44 Sudoeste 1.6 -- -- 85
2019-08-26 05:00:00 15.2 3 Norte 18 Sudeste 1 -- -- 92
2019-08-26 04:00:00 15 8 Sudeste 29 Sudeste 0 -- -- 90
2019-08-26 03:00:00 15.1 19 Este 33 Este 1.4 -- -- 86
2019-08-26 02:00:00 15.2 18 Sudeste 46 Sudeste 1.4 -- -- 79
2019-08-26 01:00:00 15.7 9 Este 26 Sudeste 1.4 -- -- 86
2019-08-26 00:00:00 16.3 20 Sudeste 28 Sudeste 0.8 -- -- 80
2019-08-25 23:00:00 16.8 10 Este 25 Oeste 2.2 -- -- 80
2019-08-25 22:00:00 20 23 Oeste 40 Oeste 0 -- -- 58
2019-08-25 21:00:00 24.2 17 Sudeste 33 Este 0 -- -- 34
2019-08-25 20:00:00 25.7 23 Sur 49 Sudeste 0 -- -- 36
2019-08-25 19:00:00 26.5 15 Sur 38 Sudeste 0 -- -- 32
2019-08-25 18:00:00 28.1 23 Sudeste 38 Sudeste 0 -- -- 30
2019-08-25 17:00:00 28.9 23 Sudeste 41 Sudeste 0 -- -- 28
2019-08-25 16:00:00 29 23 Sudeste 53 Sudeste 0 -- -- 30
2019-08-25 15:00:00 29.1 26 Sudeste 45 Sudeste 0 -- -- 28
2019-08-25 14:00:00 28.2 28 Sur 50 Sur 0 -- -- 31
2019-08-25 13:00:00 28 25 Sudeste 48 Sur 0 -- -- 32
2019-08-25 12:00:00 28.4 22 Sudeste 41 Sudeste 0 -- -- 28
2019-08-25 11:00:00 26.9 22 Sudeste 35 Sudeste 0 -- -- 30
2019-08-25 10:00:00 22.1 9 Oeste 12 Noroeste 0 -- -- 38
2019-08-25 09:00:00 20 5 Oeste 10 Oeste 0 -- -- 40
2019-08-25 08:00:00 19.2 3 Noroeste 10 Noroeste 0 -- -- 40
2019-08-25 07:00:00 18.7 3 Oeste 11 Sur 0 -- -- 41
2019-08-25 06:00:00 18 2 Este 12 Sudoeste 0 -- -- 43
2019-08-25 05:00:00 19 6 Este 14 Nordeste 0 -- -- 42
2019-08-25 04:00:00 21.8 11 Sudoeste 17 Oeste 0 -- -- 35
2019-08-25 03:00:00 21.1 5 Sur 17 Oeste 0 -- -- 38
2019-08-25 02:00:00 21.1 4 Sudeste 8 Sur 0 -- -- 37
2019-08-25 01:00:00 21.7 3 Norte 9 Noroeste 0 -- -- 37
2019-08-25 00:00:00 23.2 2 Oeste 6 Noroeste 0 -- -- 33
2019-08-24 23:00:00 24.7 3 Sur 15 Sudoeste 0 -- -- 32
2019-08-24 22:00:00 25.8 9 Sudoeste 25 Sur 0 -- -- 30
2019-08-24 21:00:00 26.3 15 Sur 27 Sur 0 -- -- 30
2019-08-24 20:00:00 28.1 6 Sur 18 Sur 0 -- -- 28
2019-08-24 19:00:00 29.2 14 Sudeste 25 Este 0 -- -- 26
2019-08-24 18:00:00 29.8 4 Este 15 Sur 0 -- -- 25
2019-08-24 17:00:00 29.8 7 Sur 18 Este 0 -- -- 24
2019-08-24 16:00:00 29.4 4 Este 20 Norte 0 -- -- 25
2019-08-24 15:00:00 30.9 8 Nordeste 18 Sudeste 0 -- -- 23
2019-08-24 14:00:00 30.1 5 Sur 20 Oeste 0 -- -- 24
2019-08-24 13:00:00 30 12 Noroeste 18 Oeste 0 -- -- 24
2019-08-24 12:00:00 29.2 7 Este 12 Sudeste 0 -- -- 27
2019-08-24 11:00:00 25.7 4 Nordeste 8 Nordeste 0 -- -- 32
2019-08-24 10:00:00 23.1 2 Norte 4 Norte 0 -- -- 35
2019-08-24 09:00:00 19.1 0 Calma 11 Sur 0 -- -- 45
2019-08-24 08:00:00 17.1 11 Sur 15 Sur 0 -- -- 46
2019-08-24 07:00:00 14.4 8 Oeste 10 Sudoeste 0 -- -- 54
2019-08-24 06:00:00 17.5 3 Este 7 Sur 0 -- -- 45
2019-08-24 05:00:00 17.4 3 Sudoeste 7 Oeste 0 -- -- 44
2019-08-24 04:00:00 19.2 6 Sur 13 Sur 0 -- -- 40
2019-08-24 03:00:00 19 4 Sur 9 Sur 0 -- -- 40
2019-08-24 02:00:00 18.6 0 Calma 11 Sur 0 -- -- 40
2019-08-24 01:00:00 19.7 3 Noroeste 9 Oeste 0 -- -- 38
2019-08-24 00:00:00 21 4 Oeste 12 Sur 0 -- -- 35
2019-08-23 23:00:00 22.4 8 Sudoeste 15 Sudoeste 0 -- -- 33
2019-08-23 22:00:00 24.5 9 Sudoeste 22 Sudoeste 0 -- -- 31
2019-08-23 21:00:00 25.8 11 Sudoeste 26 Sudoeste 0 -- -- 31
2019-08-23 20:00:00 27.2 15 Sur 27 Sudeste 0 -- -- 30
2019-08-23 19:00:00 29.2 11 Nordeste 18 Sudeste 0 -- -- 24
2019-08-23 18:00:00 29.5 11 Este 18 Este 0 -- -- 25
2019-08-23 17:00:00 29.5 8 Noroeste 18 Sudoeste 0 -- -- 24
2019-08-23 16:00:00 30.3 10 Sudoeste 24 Sudeste 0 -- -- 24
2019-08-23 15:00:00 29.8 9 Sur 16 Sudeste 0 -- -- 26
2019-08-23 14:00:00 28.6 14 Este 26 Este 0 -- -- 27
2019-08-23 13:00:00 28.3 5 Oeste 23 Sudeste 0 -- -- 27
2019-08-23 12:00:00 27.5 10 Sudeste 21 Sur 0 -- -- 28
2019-08-23 11:00:00 22.5 4 Norte 8 Noroeste 0 -- -- 38
2019-08-23 10:00:00 19.5 4 Norte 9 Norte 0 -- -- 44
2019-08-23 09:00:00 18.1 2 Este 6 Este 0 -- -- 39
2019-08-23 08:00:00 15.4 3 Sudoeste 12 Sudoeste 0 -- -- 41
2019-08-23 07:00:00 15.7 3 Oeste 10 Sudoeste 0 -- -- 34
2019-08-23 06:00:00 14.9 4 Sur 12 Sur 0 -- -- 35
2019-08-23 05:00:00 15 2 Noroeste 9 Sur 0 -- -- 34
2019-08-23 04:00:00 16.6 3 Sudeste 7 Sudeste 0 -- -- 33
2019-08-23 03:00:00 17 5 Sur 8 Sur 0 -- -- 34
2019-08-23 02:00:00 17.3 0 Calma 12 Sur 0 -- -- 30
2019-08-23 01:00:00 19.3 10 Sur 17 Sur 0 -- -- 25
2019-08-23 00:00:00 19.7 12 Sur 15 Sur 0 -- -- 27